Aérodrome :
LOGIN :

S'inscrire | Disclaimer

   EN    FR    IT 

 










Légende :    VFR   VFR Marginal   IFR   IFR Intensif   IFR Très Intensif
Visi : 
Plafond : 
>= 8 km
>= 3000ft
5 à 8 km
1000 à 3000 ft
1500m à 5 km
500 à 1000 ft
800 à 1500m
200 à 500 ft
< 800m
< 200 ft
Symboles :   Orages  Brouillard  Fortes neiges  Fortes précipitations  Vent > 20 kt
SIGMETs :   Divers  Orages  Givrage  Turbulence  Onde Orograph.  Cendres Volcan.






- Altitude de l'aérodrome : 36 ft
- Code IATA : LTQ


LFAT - Le Touquet

DERNIER METAR :
  • 202300Z AUTO 26011KT 200V300 9999 OVC013 14/11 Q1022

METARs EXPIRÉS :
  • 202230Z AUTO 25010KT 200V280 9999 FEW032 13/11 Q1022
  • 202200Z AUTO 25009KT 210V280 9999 BKN031 14/11 Q1022
  • 202130Z AUTO 24009KT 200V280 9999 BKN024 14/10 Q1021
  • 202100Z AUTO 25008KT 220V280 9999 FEW042 13/10 Q1021
  • 202030Z AUTO 25008KT 9999 BKN045 13/10 Q1021

TAF TAF LFAT
Valide du 20 à 15h jusqu'au 21 à 00h UTC


201400Z 2015/2024 27007KT 9999 SCT030
ATIS : +33 3 21 06 62 84



MET'MAP, la Météo Aéronautique d'un coup d'oeil ! - Copyright ORBIFLY Décembre 2007 - Disclaimer

ORBIFLY MET'MAP TEAM :

Programmation & Développement : Alexandra Zaïnal
Sur une idée originale de : Baudouin d'Aumeries
Soutien technique & logistique : Manuel Goepfert
Assistance : Marc-Olivier Méhu

Contact : metmap@orbifly.com




SOURCES & CREDITS :

   NOAA